createdAt,value
2022-09-28T00:00:02.008Z,13.53
2022-09-28T00:01:45.973Z,13.55
2022-09-28T00:03:19.323Z,13.50
2022-09-28T00:04:52.580Z,13.57
2022-09-28T00:06:27.967Z,13.51
2022-09-28T00:08:01.485Z,13.58
2022-09-28T00:09:34.717Z,13.53
2022-09-28T00:11:13.880Z,13.58
2022-09-28T00:12:47.542Z,13.59
2022-09-28T00:14:21.491Z,13.59
2022-09-28T00:16:04.969Z,13.60
2022-09-28T00:17:38.352Z,13.62
2022-09-28T00:19:12.943Z,13.63
2022-09-28T00:20:45.252Z,13.60
2022-09-28T00:22:18.403Z,13.57
2022-09-28T00:24:11.388Z,13.53
2022-09-28T00:25:45.015Z,13.46
2022-09-28T00:27:22.182Z,13.43
2022-09-28T00:28:55.216Z,13.36
2022-09-28T00:30:28.518Z,13.27
2022-09-28T00:32:05.562Z,13.20
2022-09-28T00:33:40.692Z,13.08
2022-09-28T00:35:14.537Z,13.03
2022-09-28T00:36:48.166Z,12.95
2022-09-28T00:38:21.664Z,12.92
2022-09-28T00:39:54.915Z,12.90
2022-09-28T00:41:28.488Z,12.89
2022-09-28T00:43:21.563Z,12.91
2022-09-28T00:44:56.064Z,12.84
2022-09-28T00:46:33.809Z,12.88
2022-09-28T00:48:07.062Z,12.84
2022-09-28T00:49:44.090Z,12.81
2022-09-28T00:51:17.938Z,12.78
2022-09-28T00:52:55.783Z,12.74
2022-09-28T00:54:28.279Z,12.68
2022-09-28T00:56:07.517Z,12.64
2022-09-28T00:57:45.024Z,12.64
2022-09-28T00:59:18.802Z,12.60
2022-09-28T01:00:52.118Z,12.57
2022-09-28T01:02:24.661Z,12.57
2022-09-28T01:04:01.573Z,12.59
2022-09-28T01:05:36.398Z,12.61
2022-09-28T01:07:11.483Z,12.63
2022-09-28T01:08:46.786Z,12.62
2022-09-28T01:10:20.982Z,12.63
2022-09-28T01:11:55.298Z,12.63
2022-09-28T01:13:29.595Z,12.54
2022-09-28T01:15:05.612Z,12.38
2022-09-28T01:16:46.085Z,12.21
2022-09-28T01:18:52.324Z,12.16
2022-09-28T01:20:34.743Z,12.16
2022-09-28T01:22:24.968Z,12.18
2022-09-28T01:24:14.652Z,12.16
2022-09-28T01:25:53.999Z,12.04
2022-09-28T01:27:32.753Z,11.99
2022-09-28T01:29:13.311Z,11.99
2022-09-28T01:30:52.348Z,12.06
2022-09-28T01:32:36.922Z,12.12
2022-09-28T01:34:14.253Z,12.14
2022-09-28T01:35:55.117Z,12.18
2022-09-28T01:37:37.400Z,12.21
2022-09-28T01:39:13.695Z,12.24
2022-09-28T01:40:48.547Z,12.27
2022-09-28T01:42:25.319Z,12.26
2022-09-28T01:44:03.479Z,12.22
2022-09-28T01:45:42.683Z,12.27
2022-09-28T01:47:22.466Z,12.29
2022-09-28T01:48:58.671Z,12.31
2022-09-28T01:50:38.121Z,12.32
2022-09-28T01:52:16.220Z,12.31
2022-09-28T01:53:54.711Z,12.24
2022-09-28T01:55:35.294Z,12.25
2022-09-28T01:57:16.704Z,12.24
2022-09-28T01:58:54.472Z,12.24
2022-09-28T02:00:29.693Z,12.22
2022-09-28T02:02:08.404Z,12.22
2022-09-28T02:03:48.220Z,12.26
2022-09-28T02:05:25.854Z,12.33
2022-09-28T02:07:07.601Z,12.27
2022-09-28T02:08:47.096Z,12.22
2022-09-28T02:10:26.327Z,12.26
2022-09-28T02:12:04.489Z,12.25
2022-09-28T02:13:41.892Z,12.26
2022-09-28T02:15:20.221Z,12.29
2022-09-28T02:16:57.553Z,12.36
2022-09-28T02:18:34.521Z,12.39
2022-09-28T02:20:09.163Z,12.42
2022-09-28T02:21:45.442Z,12.44
2022-09-28T02:23:23.217Z,12.42
2022-09-28T02:25:00.433Z,12.42
2022-09-28T02:26:40.544Z,12.39
2022-09-28T02:28:14.706Z,12.39
2022-09-28T02:29:47.998Z,12.38
2022-09-28T02:31:21.564Z,12.39
2022-09-28T02:33:01.814Z,12.37
2022-09-28T02:34:36.909Z,12.30
2022-09-28T02:36:11.109Z,12.30
2022-09-28T02:37:45.565Z,12.29
2022-09-28T02:39:19.202Z,12.21
2022-09-28T02:41:03.916Z,12.18
2022-09-28T02:42:47.641Z,12.09
2022-09-28T02:44:41.239Z,11.93
2022-09-28T02:46:28.719Z,11.97
2022-09-28T02:48:35.889Z,11.96
2022-09-28T02:50:23.009Z,11.93
2022-09-28T02:52:26.230Z,12.04
2022-09-28T02:54:21.633Z,12.03
2022-09-28T02:56:11.480Z,12.04
2022-09-28T02:57:57.972Z,12.10
2022-09-28T02:59:45.594Z,12.17
2022-09-28T03:01:28.576Z,12.17
2022-09-28T03:03:14.513Z,12.20
2022-09-28T03:04:57.822Z,12.23
2022-09-28T03:06:42.252Z,12.26
2022-09-28T03:08:23.823Z,12.20
2022-09-28T03:10:04.294Z,12.21
2022-09-28T03:11:43.079Z,12.19
2022-09-28T03:13:16.944Z,12.16
2022-09-28T03:15:06.627Z,12.12
2022-09-28T03:16:45.118Z,12.09
2022-09-28T03:18:20.174Z,12.08
2022-09-28T03:19:52.743Z,12.05
2022-09-28T03:21:26.141Z,11.95
2022-09-28T03:23:23.208Z,11.86
2022-09-28T03:24:51.999Z,11.70
2022-09-28T03:26:24.279Z,11.61
2022-09-28T03:27:57.550Z,11.55
2022-09-28T03:29:33.164Z,11.54
2022-09-28T03:31:10.689Z,11.51
2022-09-28T03:32:44.138Z,11.54
2022-09-28T03:34:19.222Z,11.63
2022-09-28T03:35:53.417Z,11.72
2022-09-28T03:37:27.782Z,11.81
2022-09-28T03:39:01.132Z,11.89
2022-09-28T03:40:34.641Z,11.92
2022-09-28T03:42:08.082Z,11.96
2022-09-28T03:43:47.986Z,11.99
2022-09-28T03:45:21.470Z,12.04
2022-09-28T03:46:57.234Z,11.97
2022-09-28T03:48:33.355Z,12.09
2022-09-28T03:50:08.837Z,12.12
2022-09-28T03:51:42.099Z,12.15
2022-09-28T03:53:14.599Z,12.19
2022-09-28T03:54:49.331Z,12.20
2022-09-28T03:56:23.088Z,12.19
2022-09-28T03:57:55.876Z,12.23
2022-09-28T03:59:29.243Z,12.22
2022-09-28T04:01:04.687Z,12.21
2022-09-28T04:02:38.057Z,12.18
2022-09-28T04:04:13.190Z,12.19
2022-09-28T04:05:55.000Z,12.21
2022-09-28T04:07:31.268Z,12.19
2022-09-28T04:09:05.543Z,12.16
2022-09-28T04:10:38.807Z,12.11
2022-09-28T04:12:13.398Z,12.19
2022-09-28T04:13:49.642Z,12.11
2022-09-28T04:15:23.414Z,12.10
2022-09-28T04:16:55.756Z,12.11
2022-09-28T04:18:31.642Z,12.12
2022-09-28T04:20:33.282Z,12.14
2022-09-28T04:22:11.410Z,12.13
2022-09-28T04:23:45.418Z,12.11
2022-09-28T04:25:18.943Z,12.06
2022-09-28T04:26:52.444Z,11.97
2022-09-28T04:28:44.290Z,11.93
2022-09-28T04:30:17.116Z,11.99
2022-09-28T04:31:53.233Z,12.03
2022-09-28T04:33:29.989Z,12.06
2022-09-28T04:35:03.163Z,12.02
2022-09-28T04:36:36.614Z,12.00
2022-09-28T04:38:11.304Z,12.03
2022-09-28T04:39:48.227Z,12.03
2022-09-28T04:41:23.976Z,12.06
2022-09-28T04:42:57.638Z,12.00
2022-09-28T04:44:31.797Z,11.94
2022-09-28T04:46:11.902Z,11.92
2022-09-28T04:47:52.559Z,11.94
2022-09-28T04:49:49.283Z,11.95
2022-09-28T04:51:42.752Z,11.94
2022-09-28T04:53:17.419Z,11.92
2022-09-28T04:54:51.164Z,12.02
2022-09-28T04:56:25.561Z,12.03
2022-09-28T04:58:02.793Z,12.05
2022-09-28T04:59:36.279Z,11.96
2022-09-28T05:01:13.194Z,12.04
2022-09-28T05:03:01.755Z,12.09
2022-09-28T05:05:01.310Z,12.09
2022-09-28T05:07:03.569Z,12.06
2022-09-28T05:08:38.592Z,12.08
2022-09-28T05:10:11.842Z,12.14
2022-09-28T05:11:45.760Z,12.22
2022-09-28T05:13:23.692Z,12.35
2022-09-28T05:14:57.741Z,12.42
2022-09-28T05:16:33.810Z,12.41
2022-09-28T05:18:25.780Z,12.41
2022-09-28T05:20:09.309Z,12.45
2022-09-28T05:21:46.920Z,12.53
2022-09-28T05:23:20.702Z,12.59
2022-09-28T05:24:56.068Z,12.61
2022-09-28T05:26:31.391Z,12.66
2022-09-28T05:28:05.828Z,12.67
2022-09-28T05:29:57.969Z,12.72
2022-09-28T05:31:37.154Z,12.72
2022-09-28T05:33:18.254Z,12.71
2022-09-28T05:35:02.102Z,12.68
2022-09-28T05:36:45.886Z,12.67
2022-09-28T05:38:19.269Z,12.72
2022-09-28T05:39:52.563Z,12.81
2022-09-28T05:41:27.377Z,12.92
2022-09-28T05:43:02.049Z,12.96
2022-09-28T05:44:35.622Z,13.04
2022-09-28T05:46:11.940Z,13.10
2022-09-28T05:47:48.066Z,13.18
2022-09-28T05:49:25.058Z,13.26
2022-09-28T05:50:58.736Z,13.36
2022-09-28T05:52:32.366Z,13.46
2022-09-28T05:54:06.464Z,13.32
2022-09-28T05:55:42.626Z,13.28
2022-09-28T05:57:17.427Z,13.25
2022-09-28T05:58:50.579Z,13.35
2022-09-28T06:00:26.351Z,13.48
2022-09-28T06:02:03.103Z,13.65
2022-09-28T06:03:36.589Z,13.83
2022-09-28T06:05:11.112Z,14.06
2022-09-28T06:06:44.584Z,14.27
2022-09-28T06:08:17.959Z,14.46
2022-09-28T06:09:54.817Z,14.70
2022-09-28T06:11:44.940Z,14.96
2022-09-28T06:13:32.434Z,15.17
2022-09-28T06:15:06.500Z,15.41
2022-09-28T06:16:43.704Z,15.60
2022-09-28T06:18:17.736Z,15.68
2022-09-28T06:20:31.935Z,16.02
2022-09-28T06:22:17.743Z,16.13
2022-09-28T06:23:58.162Z,16.44
2022-09-28T06:25:31.871Z,16.90
2022-09-28T06:27:05.411Z,17.11
2022-09-28T06:28:40.155Z,17.18
2022-09-28T06:30:13.942Z,17.16
2022-09-28T06:31:47.494Z,17.28
2022-09-28T06:33:22.061Z,17.60
2022-09-28T06:34:56.505Z,18.11
2022-09-28T06:36:32.214Z,18.35
2022-09-28T06:38:05.959Z,18.59
2022-09-28T06:39:39.725Z,18.51
2022-09-28T06:41:13.363Z,18.63
2022-09-28T06:42:57.341Z,18.78
2022-09-28T06:44:52.415Z,19.00
2022-09-28T06:46:38.197Z,19.16
2022-09-28T06:48:40.949Z,19.46
2022-09-28T06:50:18.095Z,19.62
2022-09-28T06:52:12.776Z,19.92
2022-09-28T06:54:09.883Z,20.17
2022-09-28T06:55:49.323Z,20.44
2022-09-28T06:57:23.765Z,20.39
2022-09-28T06:58:57.219Z,20.40
2022-09-28T07:00:34.191Z,20.69
2022-09-28T07:02:08.134Z,20.87
2022-09-28T07:04:04.624Z,20.85
2022-09-28T07:06:01.454Z,20.85
2022-09-28T07:07:48.847Z,21.37
2022-09-28T07:09:50.326Z,21.27
2022-09-28T07:11:29.147Z,20.83
2022-09-28T07:13:49.172Z,20.86
2022-09-28T07:15:20.761Z,21.19
2022-09-28T07:17:12.696Z,21.22
2022-09-28T07:18:47.813Z,21.16
2022-09-28T07:20:21.091Z,21.44
2022-09-28T07:22:04.452Z,21.84
2022-09-28T07:23:49.223Z,21.86
2022-09-28T07:25:32.536Z,21.92
2022-09-28T07:27:14.317Z,21.69
2022-09-28T07:29:18.242Z,21.80
2022-09-28T07:31:10.626Z,22.05
2022-09-28T07:33:10.752Z,22.57
2022-09-28T07:34:59.137Z,22.99
2022-09-28T07:36:43.788Z,22.80
2022-09-28T07:38:17.240Z,22.97
2022-09-28T07:40:07.724Z,23.11
2022-09-28T07:41:44.391Z,23.39
2022-09-28T07:43:20.718Z,23.26
2022-09-28T07:44:56.908Z,23.33
2022-09-28T07:46:31.147Z,23.39
2022-09-28T07:50:08.692Z,23.48
2022-09-28T07:51:54.320Z,23.74
2022-09-28T07:53:43.504Z,24.11
2022-09-28T07:55:26.061Z,24.08
2022-09-28T07:57:15.386Z,24.39
2022-09-28T07:59:07.240Z,24.95
2022-09-28T08:00:48.249Z,25.47
2022-09-28T08:02:22.908Z,25.56
2022-09-28T08:03:57.571Z,25.09
2022-09-28T08:05:32.436Z,25.22
2022-09-28T08:07:10.545Z,25.49
2022-09-28T08:08:45.024Z,25.58
2022-09-28T08:10:22.352Z,24.93
2022-09-28T08:12:15.659Z,25.29
2022-09-28T08:13:49.245Z,25.35
2022-09-28T08:15:42.708Z,24.98
2022-09-28T08:17:36.594Z,25.42
2022-09-28T08:19:14.815Z,25.81
2022-09-28T08:21:05.826Z,25.64
2022-09-28T08:22:38.928Z,25.98
2022-09-28T08:24:12.479Z,26.21
2022-09-28T08:25:49.076Z,26.48
2022-09-28T08:27:22.590Z,26.66
2022-09-28T08:28:56.052Z,26.92
2022-09-28T08:31:01.311Z,27.02
2022-09-28T08:32:37.658Z,27.28
2022-09-28T08:34:47.836Z,27.63
2022-09-28T08:36:35.955Z,27.84
2022-09-28T08:38:12.117Z,27.80
2022-09-28T08:40:04.322Z,27.63
2022-09-28T08:42:08.906Z,27.35
2022-09-28T08:44:14.998Z,27.54
2022-09-28T08:46:20.136Z,27.68
2022-09-28T08:48:51.823Z,27.79
2022-09-28T08:51:00.242Z,27.64
2022-09-28T08:52:52.680Z,27.66
2022-09-28T08:54:53.156Z,27.83
2022-09-28T08:56:42.003Z,27.57
2022-09-28T08:58:21.717Z,27.81
2022-09-28T08:59:57.334Z,28.09
2022-09-28T09:01:41.763Z,28.16
2022-09-28T09:03:22.738Z,28.24
2022-09-28T09:05:14.989Z,28.42
2022-09-28T09:07:22.625Z,28.50
2022-09-28T09:09:23.945Z,28.34
2022-09-28T09:11:03.579Z,28.06
2022-09-28T09:12:48.237Z,27.49
2022-09-28T09:14:44.626Z,27.18
2022-09-28T09:16:32.573Z,26.73
2022-09-28T09:18:37.644Z,26.67
2022-09-28T09:20:39.884Z,26.21
2022-09-28T09:22:36.895Z,25.53
2022-09-28T09:24:27.372Z,25.31
2022-09-28T09:26:10.191Z,24.87
2022-09-28T09:27:59.241Z,24.87
2022-09-28T09:29:55.792Z,25.12
2022-09-28T09:31:43.218Z,25.19
2022-09-28T09:33:47.944Z,25.21
2022-09-28T09:36:01.177Z,25.32
2022-09-28T09:38:17.111Z,25.38
2022-09-28T09:40:17.189Z,25.43
2022-09-28T09:42:41.264Z,25.50
2022-09-28T09:45:03.952Z,25.46
2022-09-28T09:47:09.421Z,25.57
2022-09-28T09:48:56.441Z,25.65
2022-09-28T09:50:35.380Z,25.65
2022-09-28T09:52:16.503Z,25.68
2022-09-28T09:53:59.792Z,25.69
2022-09-28T09:55:37.918Z,25.68
2022-09-28T09:57:51.909Z,25.70
2022-09-28T09:59:41.117Z,25.73
2022-09-28T10:01:31.543Z,25.94
2022-09-28T10:03:36.233Z,25.93
2022-09-28T10:05:23.416Z,25.92
2022-09-28T10:07:02.809Z,25.90
2022-09-28T10:08:43.032Z,25.94
2022-09-28T10:10:23.002Z,26.02
2022-09-28T10:11:59.504Z,26.03
2022-09-28T10:13:33.495Z,26.00
2022-09-28T10:15:16.318Z,26.07
2022-09-28T10:17:08.084Z,26.10
2022-09-28T10:19:00.562Z,26.14
2022-09-28T10:20:52.230Z,26.14
2022-09-28T10:23:04.241Z,26.15
2022-09-28T10:24:41.879Z,26.11
2022-09-28T10:26:25.125Z,26.26
2022-09-28T10:28:01.143Z,26.29
2022-09-28T10:29:44.441Z,26.41
2022-09-28T10:31:40.357Z,26.45
2022-09-28T10:33:32.866Z,26.55
2022-09-28T10:35:23.761Z,26.59
2022-09-28T10:37:07.502Z,26.56
2022-09-28T10:38:57.963Z,26.41
2022-09-28T10:40:43.781Z,26.39
2022-09-28T10:42:24.465Z,26.25
2022-09-28T10:44:07.263Z,26.19
2022-09-28T10:45:47.579Z,26.26
2022-09-28T10:47:23.440Z,26.35
2022-09-28T10:49:00.748Z,26.53
2022-09-28T10:50:36.908Z,26.63
2022-09-28T10:52:31.964Z,26.76
2022-09-28T10:54:05.600Z,26.87
2022-09-28T10:55:59.746Z,26.81
2022-09-28T10:57:37.897Z,26.77
2022-09-28T10:59:39.239Z,26.70
2022-09-28T11:01:35.634Z,26.65
2022-09-28T11:03:20.711Z,26.73
2022-09-28T11:04:56.741Z,26.81
2022-09-28T11:06:33.035Z,26.95
2022-09-28T11:08:08.862Z,27.09
2022-09-28T11:09:54.839Z,27.05
2022-09-28T11:11:29.628Z,27.08
2022-09-28T11:13:11.960Z,27.19
2022-09-28T11:14:52.955Z,27.27
2022-09-28T11:16:29.433Z,27.09
2022-09-28T11:18:25.475Z,26.80
2022-09-28T11:20:01.384Z,26.85
2022-09-28T11:21:44.076Z,26.93
2022-09-28T11:23:21.695Z,27.01
2022-09-28T11:25:30.348Z,27.07
2022-09-28T11:27:04.081Z,27.15
2022-09-28T11:28:43.088Z,27.27
2022-09-28T11:30:26.873Z,27.32
2022-09-28T11:32:44.936Z,27.39
2022-09-28T11:34:58.128Z,27.41
2022-09-28T11:36:47.466Z,27.39
2022-09-28T11:38:33.689Z,27.31
2022-09-28T11:40:35.948Z,27.36
2022-09-28T11:42:23.542Z,27.37
2022-09-28T11:44:29.464Z,27.41
2022-09-28T11:46:24.200Z,27.38
2022-09-28T11:48:03.114Z,27.43
2022-09-28T11:49:44.545Z,27.42
2022-09-28T11:51:22.461Z,27.38
2022-09-28T11:53:03.642Z,27.35
2022-09-28T11:54:44.077Z,27.33
2022-09-28T11:56:33.263Z,27.36
2022-09-28T11:58:14.437Z,27.40
2022-09-28T11:59:57.791Z,27.42
2022-09-28T12:01:38.279Z,27.46
2022-09-28T12:03:37.341Z,27.50
2022-09-28T12:05:20.973Z,27.54
2022-09-28T12:07:01.312Z,27.58
2022-09-28T12:08:41.434Z,27.52
2022-09-28T12:10:44.683Z,27.40
2022-09-28T12:12:25.692Z,27.09
2022-09-28T12:14:06.816Z,26.97
2022-09-28T12:16:17.178Z,26.86
2022-09-28T12:17:46.976Z,26.71
2022-09-28T12:19:24.994Z,26.75
2022-09-28T12:21:10.562Z,26.82
2022-09-28T12:22:49.809Z,26.91
2022-09-28T12:24:28.311Z,26.98
2022-09-28T12:26:05.161Z,27.00
2022-09-28T12:27:43.358Z,27.04
2022-09-28T12:29:21.391Z,27.07
2022-09-28T12:30:58.604Z,26.97
2022-09-28T12:32:39.237Z,26.91
2022-09-28T12:34:12.466Z,26.94
2022-09-28T12:36:06.028Z,27.05
2022-09-28T12:37:55.831Z,27.12
2022-09-28T12:39:57.146Z,27.17
2022-09-28T12:41:43.715Z,27.13
2022-09-28T12:43:34.220Z,27.21
2022-09-28T12:45:38.479Z,27.27
2022-09-28T12:47:33.866Z,27.28
2022-09-28T12:51:35.947Z,27.22
2022-09-28T12:53:28.310Z,27.17
2022-09-28T12:55:18.437Z,27.17
2022-09-28T12:57:02.743Z,27.22
2022-09-28T12:59:00.338Z,27.16
2022-09-28T13:00:42.397Z,27.21
2022-09-28T13:02:52.182Z,27.21
2022-09-28T13:04:47.565Z,27.23
2022-09-28T13:06:31.162Z,27.23
2022-09-28T13:08:11.109Z,27.20
2022-09-28T13:09:58.026Z,27.31
2022-09-28T13:11:38.117Z,27.33
2022-09-28T13:13:34.805Z,27.33
2022-09-28T13:15:27.901Z,27.37
2022-09-28T13:17:11.046Z,27.41
2022-09-28T13:18:52.656Z,27.48
2022-09-28T13:20:35.961Z,27.32
2022-09-28T13:22:23.544Z,27.34
2022-09-28T13:24:20.705Z,27.30
2022-09-28T13:25:58.556Z,27.31
2022-09-28T13:27:37.260Z,27.31
2022-09-28T13:29:14.692Z,27.27
2022-09-28T13:30:48.658Z,27.29
2022-09-28T13:32:24.502Z,27.28
2022-09-28T13:34:01.517Z,27.24
2022-09-28T13:35:35.179Z,27.18
2022-09-28T13:37:23.483Z,27.27
2022-09-28T13:38:59.631Z,27.32
2022-09-28T13:41:12.265Z,27.36
2022-09-28T13:43:06.805Z,27.38
2022-09-28T13:45:09.857Z,27.40
2022-09-28T13:46:51.023Z,27.42
2022-09-28T13:48:35.769Z,27.49
2022-09-28T13:50:23.481Z,27.50
2022-09-28T13:52:06.375Z,27.50
2022-09-28T13:54:01.219Z,27.52
2022-09-28T13:55:42.452Z,27.44
2022-09-28T13:57:25.317Z,27.41
2022-09-28T13:59:03.178Z,27.39
2022-09-28T14:00:45.747Z,27.33
2022-09-28T14:02:37.025Z,27.25
2022-09-28T14:04:17.856Z,27.16
2022-09-28T14:06:11.615Z,27.15
2022-09-28T14:07:59.909Z,27.16
2022-09-28T14:09:47.990Z,27.14
2022-09-28T14:12:01.047Z,27.15
2022-09-28T14:14:02.082Z,27.18
2022-09-28T14:15:45.119Z,27.22
2022-09-28T14:17:55.298Z,27.27
2022-09-28T14:19:32.832Z,27.28
2022-09-28T14:21:32.096Z,27.26
2022-09-28T14:23:32.478Z,27.28
2022-09-28T14:25:15.257Z,27.31
2022-09-28T14:27:12.679Z,27.31
2022-09-28T14:28:54.080Z,27.31
2022-09-28T14:30:34.147Z,27.30
2022-09-28T14:32:23.996Z,27.24
2022-09-28T14:33:59.419Z,27.18
2022-09-28T14:35:35.112Z,27.15
2022-09-28T14:37:40.529Z,27.12
2022-09-28T14:39:48.312Z,26.97
2022-09-28T14:41:31.578Z,27.00
2022-09-28T14:43:28.861Z,26.97
2022-09-28T14:45:35.032Z,26.97
2022-09-28T14:47:27.518Z,26.95
2022-09-28T14:49:03.719Z,26.95
2022-09-28T14:50:37.006Z,26.90
2022-09-28T14:52:14.039Z,26.91
2022-09-28T14:53:51.981Z,26.91
2022-09-28T14:55:32.275Z,26.88
2022-09-28T14:57:16.771Z,26.92
2022-09-28T14:58:55.416Z,26.95
2022-09-28T15:00:31.970Z,26.93
2022-09-28T15:02:09.874Z,26.94
2022-09-28T15:03:45.421Z,26.94
2022-09-28T15:05:24.159Z,26.97
2022-09-28T15:06:58.177Z,26.97
2022-09-28T15:08:39.776Z,26.98
2022-09-28T15:10:27.799Z,26.97
2022-09-28T15:12:02.054Z,26.75
2022-09-28T15:13:35.692Z,26.78
2022-09-28T15:15:21.379Z,26.66
2022-09-28T15:16:55.520Z,26.52
2022-09-28T15:19:18.805Z,26.43
2022-09-28T15:20:52.844Z,26.34
2022-09-28T15:22:25.379Z,26.26
2022-09-28T15:23:58.597Z,26.23
2022-09-28T15:25:35.439Z,26.16
2022-09-28T15:27:19.070Z,26.08
2022-09-28T15:28:52.780Z,26.02
2022-09-28T15:30:29.213Z,26.00
2022-09-28T15:32:03.054Z,25.97
2022-09-28T15:33:53.785Z,25.91
2022-09-28T15:35:28.926Z,25.88
2022-09-28T15:37:09.101Z,25.82
2022-09-28T15:38:43.262Z,25.72
2022-09-28T15:40:19.418Z,25.66
2022-09-28T15:41:54.408Z,25.58
2022-09-28T15:43:32.884Z,25.51
2022-09-28T15:45:27.096Z,25.44
2022-09-28T15:47:10.224Z,25.32
2022-09-28T15:48:51.764Z,25.22
2022-09-28T15:50:29.008Z,25.09
2022-09-28T15:52:03.107Z,25.02
2022-09-28T15:53:37.086Z,24.84
2022-09-28T15:55:22.056Z,24.81
2022-09-28T15:56:59.901Z,24.70
2022-09-28T15:58:33.185Z,24.66
2022-09-28T16:00:22.874Z,24.62
2022-09-28T16:02:08.399Z,24.58
2022-09-28T16:03:41.786Z,24.55
2022-09-28T16:05:35.851Z,24.51
2022-09-28T16:07:36.232Z,24.48
2022-09-28T16:09:37.656Z,24.46
2022-09-28T16:11:18.276Z,24.41
2022-09-28T16:12:58.859Z,24.37
2022-09-28T16:14:32.113Z,24.34
2022-09-28T16:16:05.558Z,24.31
2022-09-28T16:17:39.791Z,24.28
2022-09-28T16:19:24.775Z,24.22
2022-09-28T16:21:28.561Z,24.18
2022-09-28T16:23:09.120Z,24.12
2022-09-28T16:24:42.322Z,24.03
2022-09-28T16:26:29.891Z,23.90
2022-09-28T16:28:06.190Z,23.78
2022-09-28T16:29:41.531Z,23.69
2022-09-28T16:31:37.416Z,23.67
2022-09-28T16:33:30.673Z,23.60
2022-09-28T16:35:19.328Z,23.51
2022-09-28T16:36:52.659Z,23.46
2022-09-28T16:38:26.297Z,23.37
2022-09-28T16:39:59.441Z,23.31
2022-09-28T16:41:33.546Z,23.22
2022-09-28T16:43:10.203Z,23.19
2022-09-28T16:44:43.679Z,23.12
2022-09-28T16:46:20.750Z,23.04
2022-09-28T16:47:57.723Z,23.02
2022-09-28T16:49:32.613Z,23.01
2022-09-28T16:51:15.171Z,23.03
2022-09-28T16:53:08.680Z,23.01
2022-09-28T16:54:59.471Z,22.98
2022-09-28T16:56:45.608Z,22.84
2022-09-28T16:58:20.242Z,22.76
2022-09-28T16:59:54.128Z,22.73
2022-09-28T17:01:28.860Z,22.69
2022-09-28T17:03:02.428Z,22.62
2022-09-28T17:04:35.940Z,22.56
2022-09-28T17:06:14.057Z,22.51
2022-09-28T17:07:49.026Z,22.48
2022-09-28T17:09:23.311Z,22.44
2022-09-28T17:11:18.054Z,22.38
2022-09-28T17:12:52.864Z,22.26
2022-09-28T17:14:28.511Z,22.14
2022-09-28T17:16:04.456Z,22.08
2022-09-28T17:17:38.537Z,21.98
2022-09-28T17:19:19.687Z,22.02
2022-09-28T17:20:57.332Z,21.96
2022-09-28T17:22:30.483Z,21.88
2022-09-28T17:24:04.371Z,21.82
2022-09-28T17:25:41.609Z,21.78
2022-09-28T17:27:19.550Z,21.77
2022-09-28T17:28:53.169Z,21.72
2022-09-28T17:30:28.767Z,21.70
2022-09-28T17:32:02.364Z,21.64
2022-09-28T17:33:36.320Z,21.59
2022-09-28T17:35:24.037Z,21.52
2022-09-28T17:36:58.786Z,21.43
2022-09-28T17:38:32.286Z,21.33
2022-09-28T17:40:20.110Z,21.20
2022-09-28T17:41:53.375Z,21.14
2022-09-28T17:43:26.623Z,21.08
2022-09-28T17:45:00.063Z,20.99
2022-09-28T17:46:37.218Z,20.90
2022-09-28T17:48:15.807Z,20.88
2022-09-28T17:49:51.543Z,20.85
2022-09-28T17:51:25.008Z,20.84
2022-09-28T17:52:59.943Z,20.83
2022-09-28T17:54:33.989Z,20.77
2022-09-28T17:56:07.697Z,20.68
2022-09-28T17:57:46.026Z,20.66
2022-09-28T17:59:19.915Z,20.62
2022-09-28T18:00:53.388Z,20.62
2022-09-28T18:02:28.276Z,20.55
2022-09-28T18:04:04.847Z,20.44
2022-09-28T18:05:38.569Z,20.38
2022-09-28T18:07:11.757Z,20.33
2022-09-28T18:08:44.997Z,20.32
2022-09-28T18:10:21.542Z,20.30
2022-09-28T18:12:01.711Z,20.32
2022-09-28T18:13:35.394Z,20.35
2022-09-28T18:15:10.482Z,20.38
2022-09-28T18:16:43.026Z,20.40
2022-09-28T18:18:17.920Z,20.36
2022-09-28T18:19:51.451Z,20.32
2022-09-28T18:21:24.986Z,20.34
2022-09-28T18:22:58.526Z,20.32
2022-09-28T18:24:32.686Z,20.29
2022-09-28T18:26:11.599Z,20.25
2022-09-28T18:27:44.861Z,20.22
2022-09-28T18:29:18.836Z,20.19
2022-09-28T18:30:52.352Z,20.15
2022-09-28T18:32:25.717Z,20.13
2022-09-28T18:34:01.812Z,20.08
2022-09-28T18:35:35.675Z,20.08
2022-09-28T18:37:10.116Z,20.04
2022-09-28T18:38:43.614Z,19.99
2022-09-28T18:40:17.046Z,19.93
2022-09-28T18:41:50.509Z,19.90
2022-09-28T18:43:24.887Z,19.87
2022-09-28T18:44:57.967Z,19.84
2022-09-28T18:46:36.786Z,19.77
2022-09-28T18:48:09.948Z,19.71
2022-09-28T18:49:46.735Z,19.70
2022-09-28T18:51:20.709Z,19.66
2022-09-28T18:52:53.846Z,19.65
2022-09-28T18:54:27.305Z,19.63
2022-09-28T18:56:05.697Z,19.60
2022-09-28T18:57:40.439Z,19.54
2022-09-28T18:59:14.213Z,19.50
2022-09-28T19:00:50.883Z,19.47
2022-09-28T19:02:24.562Z,19.42
2022-09-28T19:03:59.948Z,19.39
2022-09-28T19:05:35.770Z,19.32
2022-09-28T19:07:09.926Z,19.28
2022-09-28T19:08:43.902Z,19.24
2022-09-28T19:10:17.421Z,19.17
2022-09-28T19:11:51.403Z,19.13
2022-09-28T19:13:24.719Z,19.11
2022-09-28T19:14:59.655Z,19.08
2022-09-28T19:16:33.801Z,19.03
2022-09-28T19:18:07.168Z,19.04
2022-09-28T19:19:41.513Z,19.03
2022-09-28T19:21:17.382Z,19.04
2022-09-28T19:22:51.713Z,19.04
2022-09-28T19:24:25.238Z,19.00
2022-09-28T19:25:58.730Z,18.90
2022-09-28T19:27:32.300Z,18.96
2022-09-28T19:29:05.580Z,18.95
2022-09-28T19:30:38.853Z,18.93
2022-09-28T19:32:12.718Z,18.82
2022-09-28T19:33:46.559Z,18.77
2022-09-28T19:35:20.498Z,18.74
2022-09-28T19:36:55.332Z,18.68
2022-09-28T19:38:29.689Z,18.60
2022-09-28T19:40:04.411Z,18.55
2022-09-28T19:41:45.812Z,18.51
2022-09-28T19:43:19.898Z,18.48
2022-09-28T19:44:53.308Z,18.47
2022-09-28T19:46:25.583Z,18.44
2022-09-28T19:48:01.755Z,18.39
2022-09-28T19:49:37.307Z,18.34
2022-09-28T19:51:11.055Z,18.24
2022-09-28T19:52:45.874Z,18.15
2022-09-28T19:54:21.662Z,17.98
2022-09-28T19:55:55.556Z,17.99
2022-09-28T19:57:31.038Z,17.95
2022-09-28T19:59:06.155Z,17.84
2022-09-28T20:00:39.721Z,17.84
2022-09-28T20:02:13.449Z,17.80
2022-09-28T20:03:47.279Z,17.80
2022-09-28T20:05:20.680Z,17.82
2022-09-28T20:06:53.858Z,17.78
2022-09-28T20:08:30.913Z,17.88
2022-09-28T20:10:07.082Z,17.91
2022-09-28T20:11:47.614Z,17.91
2022-09-28T20:13:21.272Z,17.89
2022-09-28T20:14:58.966Z,17.84
2022-09-28T20:16:32.497Z,17.82
2022-09-28T20:18:07.315Z,17.77
2022-09-28T20:19:40.422Z,17.74
2022-09-28T20:21:17.213Z,17.72
2022-09-28T20:22:59.500Z,17.73
2022-09-28T20:24:38.117Z,17.70
2022-09-28T20:26:12.105Z,17.72
2022-09-28T20:27:46.151Z,17.72
2022-09-28T20:29:19.494Z,17.69
2022-09-28T20:30:53.168Z,17.66
2022-09-28T20:32:26.595Z,17.66
2022-09-28T20:33:59.705Z,17.68
2022-09-28T20:35:35.262Z,17.63
2022-09-28T20:37:08.741Z,17.72
2022-09-28T20:38:42.460Z,17.77
2022-09-28T20:40:19.352Z,17.79
2022-09-28T20:41:52.581Z,17.78
2022-09-28T20:43:26.310Z,17.71
2022-09-28T20:44:59.563Z,17.70
2022-09-28T20:46:33.156Z,17.67
2022-09-28T20:48:07.848Z,17.61
2022-09-28T20:49:41.670Z,17.53
2022-09-28T20:51:16.237Z,17.51
2022-09-28T20:52:49.309Z,17.48
2022-09-28T20:54:26.557Z,17.44
2022-09-28T20:56:02.375Z,17.43
2022-09-28T20:59:28.911Z,17.38
2022-09-28T21:01:24.768Z,17.32
2022-09-28T21:02:58.035Z,17.24
2022-09-28T21:04:31.370Z,17.25
2022-09-28T21:06:11.422Z,17.22
2022-09-28T21:07:46.422Z,17.26
2022-09-28T21:09:19.803Z,17.26
2022-09-28T21:10:54.190Z,17.24
2022-09-28T21:12:30.491Z,17.25
2022-09-28T21:14:06.503Z,17.25
2022-09-28T21:15:39.690Z,17.23
2022-09-28T21:17:13.108Z,17.16
2022-09-28T21:18:47.185Z,17.22
2022-09-28T21:20:20.443Z,17.22
2022-09-28T21:21:53.549Z,17.23
2022-09-28T21:23:26.834Z,17.22
2022-09-28T21:24:59.974Z,17.24
2022-09-28T21:26:33.732Z,17.21
2022-09-28T21:28:08.349Z,17.18
2022-09-28T21:29:42.068Z,17.14
2022-09-28T21:31:16.207Z,17.01
2022-09-28T21:32:51.318Z,17.06
2022-09-28T21:34:25.358Z,17.06
2022-09-28T21:36:02.036Z,17.07
2022-09-28T21:37:35.542Z,17.04
2022-09-28T21:39:10.507Z,17.05
2022-09-28T21:40:44.570Z,16.95
2022-09-28T21:42:17.874Z,16.93
2022-09-28T21:43:53.453Z,16.89
2022-09-28T21:45:26.980Z,16.82
2022-09-28T21:47:00.072Z,16.77